Des Moines, IA (50322)

10:27 AM CST on February 12, 2016 (GMT -0600)
Cross Creek West | | Change Station
CLOSE
Current Station
Personal Weather Station
Location: Urbandale, IA
Elevation: 951 ft
Nearby Weather Stations

Elev 951 ft 41.64 °N, 93.74 °W | Updated 5 seconds ago

Partly Cloudy
Partly Cloudy
23.5 °F
Feels Like 19 °F
N
3.6
Wind Variable Wind from NW
Gusts 3.6 mph

Today
High -- | Low -- °F
--% Chance of Precip.
Yesterday
High -- | Low -- °F
Precip. -- in
Pressure 30.45 in
Visibility 10.0 miles
Clouds Scattered Clouds 1800 ft
Scattered Clouds 2300 ft
Windchill 19 °F
Dew Point -2 °F
Humidity 32%
Rainfall 0.00 in
Snow Depth Not available.
7:14 AM 5:44 PM
Waxing Crescent, 21% visible
METAR KDSM 121554Z 34013KT 10SM SCT018 SCT023 M07/M12 A3040 RMK AO2 SLP309 PRESENT WX DRSN T10671117
Pressure 30.45 in
Visibility 10.0 miles
Clouds Scattered Clouds 1800 ft
Scattered Clouds 2300 ft
Windchill 19 °F
Dew Point -2 °F
Humidity 32%
Rainfall 0.00 in
Snow Depth Not available.
7:14 AM 5:44 PM
Waxing Crescent, 21% visible
METAR KDSM 121554Z 34013KT 10SM SCT018 SCT023 M07/M12 A3040 RMK AO2 SLP309 PRESENT WX DRSN T10671117

10-Day Weather Forecast

Almanac

Astronomy

Feb. 12, 2016 Rise Set
Actual Time
Civil Twilight
Nautical Twilight
Astronomical Twilight
Moon
Length of Visible Light
Length of Day
Tomorrow will be .
, % of the Moon is Illuminated

Today's Extremes

State Highs State Lows

Community

WunderPhotos

Upload Photos

1,892,350 photos uploaded!

WunderBlog® & News

Nearby

Air Quality

  Air Quality AQ Index Pollutant
Not available.

Snow Depth

Station Depth Elevation

Earthquake Activity

City Distance Mag. Time & Date
Minimum magnitude displayed is 2.5.

Coastal Water Temperatures

Place Temperature

Stations

Nearby Weather Stations

Station Location Temp. Windchill Dew Point Humidity Wind Precip. Elev Updated Type
                   

Watches & Warnings

There are currently no watches in effect.